createdAt,value
2018-08-27T00:00:39.051Z,0.00
2018-08-27T00:02:00.068Z,0.00
2018-08-27T00:02:39.051Z,0.00
2018-08-27T00:03:39.023Z,0.00
2018-08-27T00:04:39.033Z,0.00
2018-08-27T00:05:39.029Z,0.00
2018-08-27T00:06:39.044Z,0.00
2018-08-27T00:07:59.912Z,0.00
2018-08-27T00:08:39.008Z,0.00
2018-08-27T00:09:39.018Z,0.00
2018-08-27T00:10:38.999Z,0.00
2018-08-27T00:11:38.963Z,0.00
2018-08-27T00:12:38.963Z,0.00
2018-08-27T00:13:59.955Z,0.00
2018-08-27T00:14:38.941Z,0.00
2018-08-27T00:15:38.934Z,0.00
2018-08-27T00:16:38.972Z,0.00
2018-08-27T00:17:38.952Z,0.00
2018-08-27T00:18:38.928Z,0.00
2018-08-27T00:19:59.944Z,0.00
2018-08-27T00:20:38.905Z,0.00
2018-08-27T00:21:38.969Z,0.00
2018-08-27T00:22:38.947Z,0.00
2018-08-27T00:23:38.914Z,0.00
2018-08-27T00:24:38.914Z,0.00
2018-08-27T00:25:59.924Z,0.00
2018-08-27T00:26:38.871Z,0.00
2018-08-27T00:27:38.802Z,0.00
2018-08-27T00:28:38.893Z,0.00
2018-08-27T00:29:38.867Z,0.00
2018-08-27T00:30:38.849Z,0.00
2018-08-27T00:31:59.867Z,0.00
2018-08-27T00:32:38.840Z,0.00
2018-08-27T00:33:38.831Z,0.00
2018-08-27T00:34:38.807Z,0.00
2018-08-27T00:35:38.851Z,0.00
2018-08-27T00:36:38.823Z,0.00
2018-08-27T00:37:59.837Z,0.00
2018-08-27T00:38:38.829Z,0.00
2018-08-27T00:39:38.818Z,0.00
2018-08-27T00:40:38.821Z,0.00
2018-08-27T00:41:38.788Z,0.00
2018-08-27T00:42:38.801Z,0.00
2018-08-27T00:43:59.809Z,0.00
2018-08-27T00:44:38.799Z,0.00
2018-08-27T00:45:38.794Z,0.00
2018-08-27T00:46:38.786Z,0.00
2018-08-27T00:47:38.737Z,0.00
2018-08-27T00:48:57.094Z,0.00
2018-08-27T00:49:59.740Z,0.00
2018-08-27T00:50:38.723Z,0.00
2018-08-27T00:51:38.720Z,0.00
2018-08-27T00:52:38.744Z,0.00
2018-08-27T00:53:38.703Z,0.00
2018-08-27T00:54:38.706Z,0.00
2018-08-27T00:55:59.737Z,0.00
2018-08-27T00:56:38.699Z,0.00
2018-08-27T00:57:38.707Z,0.00
2018-08-27T00:58:38.682Z,0.00
2018-08-27T00:59:38.681Z,0.00
2018-08-27T01:00:38.672Z,0.00
2018-08-27T01:01:59.688Z,0.00
2018-08-27T01:02:38.665Z,0.00
2018-08-27T01:03:38.629Z,0.00
2018-08-27T01:04:38.636Z,0.00
2018-08-27T01:05:38.648Z,0.00
2018-08-27T01:06:38.632Z,0.00
2018-08-27T01:07:59.663Z,0.00
2018-08-27T01:08:38.641Z,0.00
2018-08-27T01:09:38.647Z,0.00
2018-08-27T01:10:38.620Z,0.00
2018-08-27T01:11:38.596Z,0.00
2018-08-27T01:12:38.608Z,0.00
2018-08-27T01:13:59.587Z,0.00
2018-08-27T01:14:38.591Z,0.00
2018-08-27T01:15:38.559Z,0.00
2018-08-27T01:16:38.565Z,0.00
2018-08-27T01:17:38.546Z,0.00
2018-08-27T01:18:38.571Z,0.00
2018-08-27T01:19:59.574Z,0.00
2018-08-27T01:20:38.546Z,0.00
2018-08-27T01:21:38.554Z,0.00
2018-08-27T01:22:38.615Z,0.00
2018-08-27T01:23:38.494Z,0.00
2018-08-27T01:24:38.524Z,0.00
2018-08-27T01:25:59.477Z,0.00
2018-08-27T01:26:38.514Z,0.00
2018-08-27T01:27:38.500Z,0.00
2018-08-27T01:28:38.460Z,0.00
2018-08-27T01:29:38.490Z,0.00
2018-08-27T01:30:38.492Z,0.00
2018-08-27T01:31:59.482Z,0.00
2018-08-27T01:32:38.394Z,0.00
2018-08-27T01:33:38.466Z,0.00
2018-08-27T01:34:38.485Z,0.00
2018-08-27T01:35:38.460Z,0.00
2018-08-27T01:36:38.436Z,0.00
2018-08-27T01:37:59.436Z,0.00
2018-08-27T01:38:38.435Z,0.00
2018-08-27T01:39:39.002Z,0.00
2018-08-27T01:40:38.419Z,0.00
2018-08-27T01:41:38.434Z,0.00
2018-08-27T01:42:38.420Z,0.00
2018-08-27T01:43:59.430Z,0.00
2018-08-27T01:44:38.406Z,0.00
2018-08-27T01:45:38.393Z,0.00
2018-08-27T01:46:38.362Z,0.00
2018-08-27T01:47:38.396Z,0.00
2018-08-27T01:48:38.376Z,0.00
2018-08-27T01:49:59.397Z,0.00
2018-08-27T01:50:38.377Z,0.00
2018-08-27T01:51:38.367Z,0.00
2018-08-27T01:52:38.358Z,0.00
2018-08-27T01:53:38.299Z,0.00
2018-08-27T01:54:38.356Z,0.00
2018-08-27T01:55:59.357Z,0.00
2018-08-27T01:56:38.340Z,0.00
2018-08-27T01:57:38.335Z,0.00
2018-08-27T01:58:38.330Z,0.00
2018-08-27T01:59:38.340Z,0.00
2018-08-27T02:00:38.299Z,0.00
2018-08-27T02:01:59.233Z,0.00
2018-08-27T02:02:38.329Z,0.00
2018-08-27T02:03:38.303Z,0.00
2018-08-27T02:04:38.301Z,0.00
2018-08-27T02:05:38.273Z,0.00
2018-08-27T02:06:38.275Z,0.00
2018-08-27T02:07:59.275Z,0.00
2018-08-27T02:08:38.235Z,0.00
2018-08-27T02:09:38.252Z,0.00
2018-08-27T02:10:38.261Z,0.00
2018-08-27T02:11:38.257Z,0.00
2018-08-27T02:12:38.243Z,0.00
2018-08-27T02:13:59.233Z,0.00
2018-08-27T02:14:38.251Z,0.00
2018-08-27T02:15:38.238Z,0.00
2018-08-27T02:16:38.915Z,0.00
2018-08-27T02:17:38.223Z,0.00
2018-08-27T02:18:38.197Z,0.00
2018-08-27T02:19:59.209Z,0.00
2018-08-27T02:20:38.207Z,0.00
2018-08-27T02:21:38.218Z,0.00
2018-08-27T02:22:38.117Z,0.00
2018-08-27T02:23:38.189Z,0.00
2018-08-27T02:24:38.180Z,0.00
2018-08-27T02:25:59.182Z,0.00
2018-08-27T02:26:38.171Z,0.00
2018-08-27T02:27:38.154Z,0.00
2018-08-27T02:28:38.140Z,0.00
2018-08-27T02:29:38.090Z,0.00
2018-08-27T02:30:38.081Z,0.00
2018-08-27T02:31:59.163Z,0.00
2018-08-27T02:32:38.096Z,0.00
2018-08-27T02:33:38.116Z,0.00
2018-08-27T02:34:38.103Z,0.00
2018-08-27T02:35:38.111Z,0.00
2018-08-27T02:36:38.110Z,0.00
2018-08-27T02:37:59.113Z,0.00
2018-08-27T02:38:38.055Z,0.00
2018-08-27T02:39:38.107Z,0.00
2018-08-27T02:40:38.074Z,0.00
2018-08-27T02:41:38.095Z,0.00
2018-08-27T02:42:38.069Z,0.00
2018-08-27T02:43:59.073Z,0.00
2018-08-27T02:44:38.031Z,0.00
2018-08-27T02:45:38.046Z,0.00
2018-08-27T02:46:38.044Z,0.00
2018-08-27T02:47:38.062Z,0.00
2018-08-27T02:48:38.030Z,0.00
2018-08-27T02:49:59.023Z,0.00
2018-08-27T02:50:38.014Z,0.00
2018-08-27T02:51:37.968Z,0.00
2018-08-27T02:52:37.996Z,0.00
2018-08-27T02:53:38.026Z,0.00
2018-08-27T02:54:38.003Z,0.00
2018-08-27T02:55:59.002Z,0.00
2018-08-27T02:56:37.990Z,0.00
2018-08-27T02:57:37.975Z,0.00
2018-08-27T02:58:37.958Z,0.00
2018-08-27T02:59:37.939Z,0.00
2018-08-27T03:00:37.884Z,0.00
2018-08-27T03:01:58.948Z,0.00
2018-08-27T03:02:37.966Z,0.00
2018-08-27T03:03:37.954Z,0.00
2018-08-27T03:04:37.951Z,0.00
2018-08-27T03:05:37.876Z,0.00
2018-08-27T03:06:38.931Z,0.00
2018-08-27T03:07:58.921Z,0.00
2018-08-27T03:08:37.951Z,0.00
2018-08-27T03:09:37.899Z,0.00
2018-08-27T03:10:37.901Z,0.00
2018-08-27T03:11:37.885Z,0.00
2018-08-27T03:12:37.886Z,0.00
2018-08-27T03:13:59.283Z,0.00
2018-08-27T03:14:38.681Z,0.00
2018-08-27T03:15:37.911Z,0.00
2018-08-27T03:16:37.846Z,0.00
2018-08-27T03:17:37.861Z,0.00
2018-08-27T03:18:37.830Z,0.00
2018-08-27T03:19:58.839Z,0.00
2018-08-27T03:20:37.821Z,0.00
2018-08-27T03:21:37.834Z,0.00
2018-08-27T03:22:37.860Z,0.00
2018-08-27T03:23:37.814Z,0.00
2018-08-27T03:24:37.806Z,0.00
2018-08-27T03:25:58.802Z,0.00
2018-08-27T03:26:37.789Z,0.00
2018-08-27T03:27:37.807Z,0.00
2018-08-27T03:28:37.748Z,0.00
2018-08-27T03:29:37.725Z,0.00
2018-08-27T03:30:37.797Z,0.00
2018-08-27T03:31:58.767Z,0.00
2018-08-27T03:32:37.765Z,0.00
2018-08-27T03:33:37.740Z,0.00
2018-08-27T03:34:37.726Z,0.00
2018-08-27T03:35:37.745Z,0.00
2018-08-27T03:36:37.751Z,0.00
2018-08-27T03:37:58.755Z,0.00
2018-08-27T03:38:37.719Z,0.00
2018-08-27T03:39:37.727Z,0.00
2018-08-27T03:40:37.717Z,0.00
2018-08-27T03:41:37.646Z,0.00
2018-08-27T03:42:37.696Z,0.00
2018-08-27T03:43:58.697Z,0.00
2018-08-27T03:44:37.693Z,0.00
2018-08-27T03:45:37.686Z,0.00
2018-08-27T03:46:37.674Z,0.00
2018-08-27T03:47:37.661Z,0.00
2018-08-27T03:48:37.713Z,0.00
2018-08-27T03:49:58.673Z,0.00
2018-08-27T03:50:37.648Z,0.00
2018-08-27T03:51:37.654Z,0.00
2018-08-27T03:52:37.641Z,0.00
2018-08-27T03:53:37.631Z,0.00
2018-08-27T03:54:37.621Z,0.00
2018-08-27T03:55:58.575Z,0.00
2018-08-27T03:56:37.624Z,0.00
2018-08-27T03:57:37.603Z,0.00
2018-08-27T03:58:37.626Z,0.00
2018-08-27T03:59:37.591Z,0.00
2018-08-27T04:00:37.594Z,0.00
2018-08-27T04:01:58.574Z,0.00
2018-08-27T04:02:37.558Z,0.00
2018-08-27T04:03:37.576Z,0.00
2018-08-27T04:04:37.506Z,0.00
2018-08-27T04:05:37.540Z,0.00
2018-08-27T04:06:37.550Z,0.00
2018-08-27T04:07:58.548Z,4.00
2018-08-27T04:08:37.534Z,4.00
2018-08-27T04:09:37.525Z,0.00
2018-08-27T04:10:37.494Z,4.00
2018-08-27T04:11:37.521Z,4.00
2018-08-27T04:12:37.519Z,8.00
2018-08-27T04:13:58.492Z,4.00
2018-08-27T04:14:37.485Z,8.00
2018-08-27T04:15:37.507Z,8.00
2018-08-27T04:16:37.482Z,8.00
2018-08-27T04:17:37.477Z,12.00
2018-08-27T04:18:37.452Z,12.00
2018-08-27T04:19:58.488Z,12.00
2018-08-27T04:20:37.428Z,12.00
2018-08-27T04:21:37.466Z,12.00
2018-08-27T04:22:37.441Z,16.00
2018-08-27T04:23:37.441Z,20.00
2018-08-27T04:24:37.394Z,20.00
2018-08-27T04:25:58.408Z,20.00
2018-08-27T04:26:37.439Z,28.00
2018-08-27T04:27:37.408Z,28.00
2018-08-27T04:28:37.417Z,36.00
2018-08-27T04:29:37.406Z,44.00
2018-08-27T04:30:37.406Z,52.00
2018-08-27T04:31:58.370Z,64.00
2018-08-27T04:32:37.393Z,72.00
2018-08-27T04:33:37.379Z,88.00
2018-08-27T04:34:37.380Z,92.00
2018-08-27T04:35:37.372Z,112.00
2018-08-27T04:36:37.372Z,124.00
2018-08-27T04:37:58.359Z,144.00
2018-08-27T04:38:37.319Z,152.00
2018-08-27T04:39:37.361Z,160.00
2018-08-27T04:40:37.341Z,180.00
2018-08-27T04:41:37.326Z,196.00
2018-08-27T04:42:37.358Z,204.00
2018-08-27T04:43:58.335Z,192.00
2018-08-27T04:44:37.311Z,196.00
2018-08-27T04:45:37.303Z,184.00
2018-08-27T04:46:37.281Z,216.00
2018-08-27T04:47:37.302Z,228.00
2018-08-27T04:48:37.348Z,248.00
2018-08-27T04:49:58.278Z,244.00
2018-08-27T04:50:37.336Z,232.00
2018-08-27T04:51:37.266Z,240.00
2018-08-27T04:52:37.274Z,252.00
2018-08-27T04:53:37.226Z,276.00
2018-08-27T04:54:37.223Z,260.00
2018-08-27T04:55:58.258Z,256.00
2018-08-27T04:56:37.244Z,300.00
2018-08-27T04:57:37.239Z,336.00
2018-08-27T04:58:37.228Z,320.00
2018-08-27T04:59:37.217Z,360.00
2018-08-27T05:00:37.230Z,364.00
2018-08-27T05:01:58.217Z,316.00
2018-08-27T05:02:37.209Z,336.00
2018-08-27T05:03:37.179Z,400.00
2018-08-27T05:04:37.189Z,364.00
2018-08-27T05:05:37.227Z,412.00
2018-08-27T05:06:37.153Z,464.00
2018-08-27T05:07:58.174Z,528.00
2018-08-27T05:08:37.169Z,484.00
2018-08-27T05:09:37.155Z,440.00
2018-08-27T05:10:37.169Z,460.00
2018-08-27T05:11:37.169Z,500.00
2018-08-27T05:12:37.183Z,480.00
2018-08-27T05:13:58.116Z,480.00
2018-08-27T05:14:37.079Z,496.00
2018-08-27T05:15:37.125Z,504.00
2018-08-27T05:16:37.107Z,464.00
2018-08-27T05:17:37.093Z,452.00
2018-08-27T05:18:37.110Z,480.00
2018-08-27T05:19:58.072Z,568.00
2018-08-27T05:20:37.883Z,672.00
2018-08-27T05:21:37.007Z,640.00
2018-08-27T05:22:37.115Z,744.00
2018-08-27T05:23:37.059Z,780.00
2018-08-27T05:24:37.059Z,848.00
2018-08-27T05:25:58.057Z,944.00
2018-08-27T05:26:37.029Z,1116.00
2018-08-27T05:27:37.048Z,1112.00
2018-08-27T05:28:37.911Z,1104.00
2018-08-27T05:29:37.027Z,1128.00
2018-08-27T05:30:37.033Z,1224.00
2018-08-27T05:31:58.012Z,1248.00
2018-08-27T05:32:37.716Z,1452.00
2018-08-27T05:33:36.970Z,1412.00
2018-08-27T05:34:36.961Z,1456.00
2018-08-27T05:35:36.984Z,1528.00
2018-08-27T05:36:36.977Z,1520.00
2018-08-27T05:37:57.990Z,1472.00
2018-08-27T05:38:36.968Z,1428.00
2018-08-27T05:39:36.963Z,1552.00
2018-08-27T05:40:36.947Z,1644.00
2018-08-27T05:41:36.922Z,1540.00
2018-08-27T05:42:36.920Z,1392.00
2018-08-27T05:43:57.927Z,1440.00
2018-08-27T05:44:37.012Z,1420.00
2018-08-27T05:45:36.909Z,1360.00
2018-08-27T05:46:36.936Z,1620.00
2018-08-27T05:47:36.995Z,1612.00
2018-08-27T05:48:36.915Z,1800.00
2018-08-27T05:49:57.881Z,2000.00
2018-08-27T05:50:36.868Z,2072.00
2018-08-27T05:51:36.934Z,1884.00
2018-08-27T05:52:36.875Z,1860.00
2018-08-27T05:53:36.873Z,1540.00
2018-08-27T05:54:36.980Z,1744.00
2018-08-27T05:55:57.847Z,1828.00
2018-08-27T05:56:36.828Z,1856.00
2018-08-27T05:57:36.845Z,1720.00
2018-08-27T05:58:36.825Z,1540.00
2018-08-27T05:59:36.846Z,1144.00
2018-08-27T06:00:36.827Z,1300.00
2018-08-27T06:01:57.845Z,1076.00
2018-08-27T06:02:36.882Z,948.00
2018-08-27T06:03:37.374Z,1036.00
2018-08-27T06:04:37.757Z,1148.00
2018-08-27T06:05:37.728Z,1188.00
2018-08-27T06:06:36.817Z,1140.00
2018-08-27T06:07:57.772Z,1284.00
2018-08-27T06:08:36.919Z,1380.00
2018-08-27T06:09:36.761Z,1416.00
2018-08-27T06:10:36.834Z,1264.00
2018-08-27T06:11:36.766Z,1196.00
2018-08-27T06:12:37.235Z,1356.00
2018-08-27T06:13:58.453Z,1320.00
2018-08-27T06:14:38.412Z,1164.00
2018-08-27T06:15:36.995Z,1584.00
2018-08-27T06:16:36.747Z,1616.00
2018-08-27T06:17:36.744Z,1448.00
2018-08-27T06:18:36.992Z,1424.00
2018-08-27T06:19:57.720Z,1172.00
2018-08-27T06:20:36.832Z,1032.00
2018-08-27T06:21:36.706Z,1284.00
2018-08-27T06:22:36.679Z,1244.00
2018-08-27T06:23:36.679Z,1308.00
2018-08-27T06:24:36.667Z,1628.00
2018-08-27T06:25:57.652Z,1460.00
2018-08-27T06:26:36.695Z,1236.00
2018-08-27T06:27:36.641Z,1428.00
2018-08-27T06:28:36.613Z,1380.00
2018-08-27T06:29:36.656Z,1400.00
2018-08-27T06:30:36.637Z,1484.00
2018-08-27T06:31:57.638Z,1768.00
2018-08-27T06:32:36.634Z,1860.00
2018-08-27T06:33:36.608Z,1976.00
2018-08-27T06:34:36.604Z,1768.00
2018-08-27T06:35:36.552Z,1452.00
2018-08-27T06:36:36.588Z,1532.00
2018-08-27T06:37:57.645Z,1756.00
2018-08-27T06:38:36.594Z,1696.00
2018-08-27T06:39:36.566Z,1556.00
2018-08-27T06:40:36.555Z,1660.00
2018-08-27T06:41:36.527Z,1424.00
2018-08-27T06:42:36.490Z,1704.00
2018-08-27T06:43:57.573Z,1992.00
2018-08-27T06:44:37.943Z,2124.00
2018-08-27T06:45:37.363Z,2960.00
2018-08-27T06:46:36.551Z,3644.00
2018-08-27T06:47:36.562Z,5036.00
2018-08-27T06:48:36.520Z,4432.00
2018-08-27T06:49:57.484Z,4720.00
2018-08-27T06:50:36.507Z,3408.00
2018-08-27T06:51:36.513Z,2668.00
2018-08-27T06:52:36.658Z,2380.00
2018-08-27T06:53:36.496Z,1888.00
2018-08-27T06:54:36.542Z,2072.00
2018-08-27T06:55:57.543Z,2156.00
2018-08-27T06:56:36.460Z,2028.00
2018-08-27T06:57:36.465Z,2924.00
2018-08-27T06:58:36.447Z,3812.00
2018-08-27T06:59:36.444Z,4068.00
2018-08-27T07:00:36.457Z,3560.00
2018-08-27T07:01:57.442Z,2776.00
2018-08-27T07:02:36.438Z,2656.00
2018-08-27T07:03:36.365Z,1932.00
2018-08-27T07:04:36.428Z,2152.00
2018-08-27T07:05:37.102Z,2092.00
2018-08-27T07:06:36.397Z,2088.00
2018-08-27T07:07:57.409Z,2420.00
2018-08-27T07:08:36.411Z,2332.00
2018-08-27T07:09:36.444Z,2464.00
2018-08-27T07:10:36.417Z,2408.00
2018-08-27T07:11:36.396Z,2732.00
2018-08-27T07:12:36.354Z,2336.00
2018-08-27T07:13:57.407Z,1996.00
2018-08-27T07:14:36.365Z,2184.00
2018-08-27T07:15:37.288Z,2164.00
2018-08-27T07:16:36.419Z,2328.00
2018-08-27T07:17:36.337Z,2280.00
2018-08-27T07:18:36.329Z,2700.00
2018-08-27T07:19:57.321Z,3384.00
2018-08-27T07:20:36.321Z,3484.00
2018-08-27T07:21:36.319Z,3264.00
2018-08-27T07:22:36.307Z,3696.00
2018-08-27T07:23:36.295Z,3496.00
2018-08-27T07:24:36.306Z,4264.00
2018-08-27T07:25:57.300Z,3864.00
2018-08-27T07:26:36.255Z,4516.00
2018-08-27T07:27:36.400Z,4508.00
2018-08-27T07:28:36.335Z,4560.00
2018-08-27T07:29:36.266Z,4452.00
2018-08-27T07:30:36.247Z,4948.00
2018-08-27T07:31:57.253Z,4808.00
2018-08-27T07:32:36.246Z,4456.00
2018-08-27T07:33:36.239Z,4156.00
2018-08-27T07:34:36.234Z,4772.00
2018-08-27T07:35:36.316Z,4664.00
2018-08-27T07:36:36.279Z,5232.00
2018-08-27T07:37:57.211Z,5144.00
2018-08-27T07:38:36.220Z,3832.00
2018-08-27T07:39:36.235Z,3688.00
2018-08-27T07:40:36.206Z,4316.00
2018-08-27T07:41:36.151Z,4060.00
2018-08-27T07:42:36.204Z,4216.00
2018-08-27T07:43:57.888Z,4040.00
2018-08-27T07:44:36.184Z,4616.00
2018-08-27T07:45:36.184Z,5952.00
2018-08-27T07:46:36.168Z,6720.00
2018-08-27T07:47:36.167Z,7012.00
2018-08-27T07:48:36.174Z,8656.00
2018-08-27T07:49:57.158Z,6740.00
2018-08-27T07:50:36.191Z,6816.00
2018-08-27T07:51:36.139Z,6652.00
2018-08-27T07:52:36.148Z,7308.00
2018-08-27T07:53:36.081Z,7152.00
2018-08-27T07:54:36.128Z,7376.00
2018-08-27T07:55:57.119Z,5168.00
2018-08-27T07:56:36.134Z,4624.00
2018-08-27T07:57:36.104Z,5412.00
2018-08-27T07:58:36.156Z,5980.00
2018-08-27T07:59:36.109Z,7196.00
2018-08-27T08:00:36.080Z,7396.00
2018-08-27T08:01:57.086Z,5400.00
2018-08-27T08:02:36.072Z,4372.00
2018-08-27T08:03:36.056Z,4500.00
2018-08-27T08:04:36.080Z,5308.00
2018-08-27T08:05:36.038Z,5996.00
2018-08-27T08:06:36.076Z,7548.00
2018-08-27T08:07:57.025Z,6148.00
2018-08-27T08:08:36.034Z,6424.00
2018-08-27T08:09:36.022Z,6436.00
2018-08-27T08:10:36.088Z,6432.00
2018-08-27T08:11:36.025Z,6916.00
2018-08-27T08:12:36.057Z,6104.00
2018-08-27T08:13:57.041Z,6180.00
2018-08-27T08:14:36.057Z,4664.00
2018-08-27T08:15:36.015Z,4588.00
2018-08-27T08:16:35.996Z,5840.00
2018-08-27T08:17:36.017Z,6972.00
2018-08-27T08:18:35.972Z,5540.00
2018-08-27T08:19:56.985Z,4808.00
2018-08-27T08:20:36.385Z,5128.00
2018-08-27T08:21:35.969Z,5732.00
2018-08-27T08:22:36.504Z,4852.00
2018-08-27T08:23:35.902Z,3984.00
2018-08-27T08:24:35.956Z,4172.00
2018-08-27T08:25:56.958Z,4220.00
2018-08-27T08:26:35.941Z,4032.00
2018-08-27T08:27:37.359Z,4356.00
2018-08-27T08:28:35.945Z,4104.00
2018-08-27T08:29:36.041Z,5612.00
2018-08-27T08:30:35.946Z,7488.00
2018-08-27T08:31:56.908Z,7316.00
2018-08-27T08:32:35.912Z,6628.00
2018-08-27T08:33:35.961Z,6256.00
2018-08-27T08:34:36.590Z,7036.00
2018-08-27T08:35:35.913Z,8664.00
2018-08-27T08:36:35.890Z,11748.00
2018-08-27T08:37:59.492Z,11264.00
2018-08-27T08:38:35.889Z,8696.00
2018-08-27T08:39:35.880Z,8632.00
2018-08-27T08:40:35.873Z,9016.00
2018-08-27T08:41:35.864Z,11120.00
2018-08-27T08:42:35.866Z,9304.00
2018-08-27T08:43:57.559Z,11620.00
2018-08-27T08:44:35.823Z,11448.00
2018-08-27T08:45:35.839Z,8300.00
2018-08-27T08:46:35.915Z,7360.00
2018-08-27T08:47:35.844Z,6356.00
2018-08-27T08:48:35.843Z,5772.00
2018-08-27T08:49:56.824Z,4744.00
2018-08-27T08:50:37.574Z,4948.00
2018-08-27T08:51:36.760Z,5284.00
2018-08-27T08:52:35.782Z,5540.00
2018-08-27T08:53:35.838Z,5928.00
2018-08-27T08:54:35.798Z,7156.00
2018-08-27T08:55:56.819Z,7256.00
2018-08-27T08:56:35.816Z,5668.00
2018-08-27T08:57:35.802Z,4768.00
2018-08-27T08:58:35.814Z,7348.00
2018-08-27T08:59:35.773Z,10124.00
2018-08-27T09:00:35.762Z,9552.00
2018-08-27T09:01:56.794Z,7344.00
2018-08-27T09:02:35.811Z,6732.00
2018-08-27T09:03:35.762Z,7504.00
2018-08-27T09:04:35.757Z,7972.00
2018-08-27T09:05:36.725Z,10500.00
2018-08-27T09:06:35.736Z,8960.00
2018-08-27T09:07:56.748Z,7992.00
2018-08-27T09:08:35.823Z,6692.00
2018-08-27T09:09:35.710Z,8612.00
2018-08-27T09:10:35.727Z,9664.00
2018-08-27T09:11:35.742Z,8048.00
2018-08-27T09:12:35.663Z,7144.00
2018-08-27T09:13:56.712Z,8424.00
2018-08-27T09:14:35.714Z,8684.00
2018-08-27T09:15:35.724Z,8488.00
2018-08-27T09:16:35.728Z,10364.00
2018-08-27T09:17:35.768Z,8332.00
2018-08-27T09:18:35.724Z,9552.00
2018-08-27T09:19:56.771Z,9140.00
2018-08-27T09:20:35.650Z,9140.00
2018-08-27T09:21:35.685Z,8116.00
2018-08-27T09:22:35.681Z,7380.00
2018-08-27T09:23:35.731Z,7696.00
2018-08-27T09:24:35.658Z,7168.00
2018-08-27T09:25:56.669Z,7968.00
2018-08-27T09:26:35.624Z,8372.00
2018-08-27T09:27:35.645Z,7428.00
2018-08-27T09:28:35.664Z,7536.00
2018-08-27T09:29:35.640Z,9040.00
2018-08-27T09:30:35.635Z,8376.00
2018-08-27T09:31:56.631Z,7340.00
2018-08-27T09:32:35.689Z,8500.00
2018-08-27T09:33:35.652Z,8672.00
2018-08-27T09:34:35.613Z,8360.00
2018-08-27T09:35:35.615Z,8204.00
2018-08-27T09:36:35.620Z,7312.00
2018-08-27T09:37:56.608Z,7012.00
2018-08-27T09:38:35.612Z,8028.00
2018-08-27T09:39:36.504Z,8364.00
2018-08-27T09:40:35.549Z,7332.00
2018-08-27T09:41:35.618Z,8064.00
2018-08-27T09:42:35.573Z,7188.00
2018-08-27T09:43:56.568Z,7060.00
2018-08-27T09:44:35.574Z,5864.00
2018-08-27T09:45:35.545Z,5804.00
2018-08-27T09:46:35.568Z,5372.00
2018-08-27T09:47:35.565Z,5436.00
2018-08-27T09:48:35.553Z,5208.00
2018-08-27T09:49:56.544Z,5124.00
2018-08-27T09:50:35.522Z,4848.00
2018-08-27T09:51:35.692Z,5612.00
2018-08-27T09:52:35.562Z,5592.00
2018-08-27T09:53:35.529Z,4452.00
2018-08-27T09:54:36.074Z,5068.00
2018-08-27T09:55:56.494Z,4172.00
2018-08-27T09:56:35.517Z,3732.00
2018-08-27T09:57:35.541Z,3720.00
2018-08-27T09:58:35.500Z,5308.00
2018-08-27T09:59:35.505Z,8740.00
2018-08-27T10:00:35.499Z,7628.00
2018-08-27T10:01:57.944Z,8056.00
2018-08-27T10:02:36.229Z,9400.00
2018-08-27T10:03:35.461Z,8280.00
2018-08-27T10:04:35.486Z,6216.00
2018-08-27T10:05:35.478Z,4804.00
2018-08-27T10:06:35.471Z,4912.00
2018-08-27T10:07:56.495Z,5772.00
2018-08-27T10:08:36.095Z,9788.00
2018-08-27T10:09:35.471Z,6096.00
2018-08-27T10:10:35.470Z,3584.00
2018-08-27T10:11:35.493Z,4000.00
2018-08-27T10:12:35.455Z,7032.00
2018-08-27T10:13:56.466Z,9960.00
2018-08-27T10:14:37.002Z,11676.00
2018-08-27T10:15:35.453Z,10516.00
2018-08-27T10:16:37.127Z,9084.00
2018-08-27T10:17:35.923Z,7560.00
2018-08-27T10:18:35.403Z,6812.00
2018-08-27T10:19:56.463Z,7020.00
2018-08-27T10:20:35.412Z,8104.00
2018-08-27T10:21:35.413Z,10280.00
2018-08-27T10:22:35.455Z,10492.00
2018-08-27T10:23:35.384Z,10112.00
2018-08-27T10:24:35.395Z,9868.00
2018-08-27T10:25:56.421Z,9592.00
2018-08-27T10:26:36.346Z,8464.00
2018-08-27T10:27:35.416Z,8536.00
2018-08-27T10:28:35.385Z,9136.00
2018-08-27T10:29:35.400Z,10576.00
2018-08-27T10:30:36.305Z,11456.00
2018-08-27T10:31:56.401Z,10504.00
2018-08-27T10:32:35.376Z,8784.00
2018-08-27T10:33:35.363Z,8180.00
2018-08-27T10:34:35.352Z,8548.00
2018-08-27T10:35:35.355Z,8708.00
2018-08-27T10:36:37.177Z,8164.00
2018-08-27T10:37:57.045Z,12864.00
2018-08-27T10:38:35.359Z,12840.00
2018-08-27T10:39:35.356Z,11784.00
2018-08-27T10:40:35.335Z,10240.00
2018-08-27T10:41:35.335Z,11776.00
2018-08-27T10:42:35.323Z,13388.00
2018-08-27T10:43:56.341Z,11076.00
2018-08-27T10:44:35.298Z,9604.00
2018-08-27T10:45:35.300Z,9232.00
2018-08-27T10:46:35.338Z,9716.00
2018-08-27T10:47:35.315Z,9004.00
2018-08-27T10:48:35.373Z,9436.00
2018-08-27T10:49:56.303Z,10316.00
2018-08-27T10:50:35.346Z,10600.00
2018-08-27T10:51:35.295Z,11364.00
2018-08-27T10:52:35.290Z,12488.00
2018-08-27T10:53:35.310Z,13544.00
2018-08-27T10:54:35.283Z,16192.00
2018-08-27T10:55:56.293Z,22208.00
2018-08-27T10:56:35.449Z,24800.00
2018-08-27T10:57:35.317Z,25056.00
2018-08-27T10:58:35.267Z,17472.00
2018-08-27T10:59:35.225Z,13156.00
2018-08-27T11:00:35.237Z,12356.00
2018-08-27T11:01:56.261Z,11512.00
2018-08-27T11:02:35.268Z,11232.00
2018-08-27T11:03:35.263Z,11976.00
2018-08-27T11:04:35.306Z,12076.00
2018-08-27T11:05:35.266Z,12168.00
2018-08-27T11:06:35.818Z,11768.00
2018-08-27T11:07:56.255Z,11136.00
2018-08-27T11:08:35.259Z,10136.00
2018-08-27T11:09:35.240Z,9092.00
2018-08-27T11:10:35.286Z,9052.00
2018-08-27T11:11:35.257Z,11560.00
2018-08-27T11:12:36.046Z,13688.00
2018-08-27T11:13:56.168Z,12580.00
2018-08-27T11:14:35.224Z,13164.00
2018-08-27T11:15:35.214Z,14044.00
2018-08-27T11:16:35.222Z,13336.00
2018-08-27T11:17:35.208Z,15484.00
2018-08-27T11:18:35.244Z,36192.00
2018-08-27T11:19:56.339Z,22464.00
2018-08-27T11:20:35.360Z,23104.00
2018-08-27T11:21:35.224Z,23616.00
2018-08-27T11:22:35.211Z,23392.00
2018-08-27T11:23:35.205Z,23680.00
2018-08-27T11:24:35.183Z,27872.00
2018-08-27T11:25:56.201Z,19232.00
2018-08-27T11:26:35.321Z,19392.00
2018-08-27T11:27:35.199Z,20928.00
2018-08-27T11:28:35.151Z,24768.00
2018-08-27T11:29:35.206Z,50976.00
2018-08-27T11:30:35.181Z,61216.00
2018-08-27T11:31:56.246Z,42816.00
2018-08-27T11:32:35.172Z,60768.00
2018-08-27T11:33:35.213Z,44160.00
2018-08-27T11:34:35.087Z,25216.00
2018-08-27T11:35:35.113Z,24192.00
2018-08-27T11:36:36.983Z,56000.00
2018-08-27T11:37:56.146Z,35840.00
2018-08-27T11:38:35.171Z,27392.00
2018-08-27T11:39:35.177Z,29760.00
2018-08-27T11:40:35.148Z,22080.00
2018-08-27T11:41:35.192Z,18016.00
2018-08-27T11:42:35.226Z,11468.00
2018-08-27T11:43:56.182Z,7508.00
2018-08-27T11:44:35.168Z,7796.00
2018-08-27T11:45:35.151Z,9096.00
2018-08-27T11:46:35.181Z,8888.00
2018-08-27T11:47:35.153Z,10244.00
2018-08-27T11:48:35.116Z,10216.00
2018-08-27T11:49:56.133Z,7948.00
2018-08-27T11:50:35.197Z,4816.00
2018-08-27T11:51:35.155Z,2968.00
2018-08-27T11:52:35.160Z,2816.00
2018-08-27T11:53:35.151Z,2808.00
2018-08-27T11:54:35.179Z,3180.00
2018-08-27T11:55:56.182Z,2896.00
2018-08-27T11:56:35.702Z,2692.00
2018-08-27T11:57:35.137Z,2624.00
2018-08-27T11:58:35.190Z,2364.00
2018-08-27T11:59:35.142Z,2316.00
2018-08-27T12:00:35.146Z,2336.00
2018-08-27T12:01:56.180Z,2684.00
2018-08-27T12:02:35.158Z,3352.00
2018-08-27T12:03:35.110Z,5708.00
2018-08-27T12:04:35.143Z,7480.00
2018-08-27T12:05:35.123Z,7452.00
2018-08-27T12:06:35.127Z,6580.00
2018-08-27T12:07:56.139Z,5660.00
2018-08-27T12:08:35.138Z,5596.00
2018-08-27T12:09:35.174Z,6708.00
2018-08-27T12:10:35.122Z,7732.00
2018-08-27T12:11:35.118Z,9944.00
2018-08-27T12:12:35.119Z,15488.00
2018-08-27T12:13:56.119Z,47424.00
2018-08-27T12:14:35.105Z,54336.00
2018-08-27T12:15:35.092Z,35488.00
2018-08-27T12:16:35.099Z,35264.00
2018-08-27T12:17:35.103Z,30656.00
2018-08-27T12:18:35.100Z,67296.00
2018-08-27T12:19:56.263Z,69952.00
2018-08-27T12:20:35.098Z,30432.00
2018-08-27T12:21:35.092Z,47392.00
2018-08-27T12:22:35.088Z,39200.00
2018-08-27T12:23:35.103Z,37280.00
2018-08-27T12:24:35.068Z,60960.00
2018-08-27T12:25:56.097Z,63776.00
2018-08-27T12:26:35.100Z,26432.00
2018-08-27T12:27:35.088Z,68736.00
2018-08-27T12:28:35.120Z,67936.00